createdAt,value
2019-05-10T00:00:11.876Z,16.61
2019-05-10T00:02:54.700Z,16.78
2019-05-10T00:05:37.236Z,16.61
2019-05-10T00:08:19.880Z,16.74
2019-05-10T00:10:46.061Z,16.57
2019-05-10T00:13:24.155Z,16.61
2019-05-10T00:15:48.624Z,16.64
2019-05-10T00:18:13.216Z,16.50
2019-05-10T00:20:37.717Z,16.48
2019-05-10T00:23:02.170Z,16.52
2019-05-10T00:25:26.642Z,16.24
2019-05-10T00:27:51.149Z,16.26
2019-05-10T00:30:15.832Z,16.58
2019-05-10T00:32:40.272Z,16.14
2019-05-10T00:35:06.468Z,15.93
2019-05-10T00:37:30.893Z,16.47
2019-05-10T00:39:55.431Z,16.10
2019-05-10T00:42:20.525Z,16.16
2019-05-10T00:44:45.117Z,16.40
2019-05-10T00:47:09.720Z,16.25
2019-05-10T00:49:34.174Z,16.33
2019-05-10T00:51:58.637Z,16.30
2019-05-10T00:54:23.107Z,16.19
2019-05-10T00:56:47.704Z,16.41
2019-05-10T00:59:12.152Z,16.16
2019-05-10T01:01:36.697Z,16.06
2019-05-10T01:04:01.136Z,16.07
2019-05-10T01:06:25.610Z,16.19
2019-05-10T01:08:50.070Z,16.07
2019-05-10T01:11:14.606Z,16.16
2019-05-10T01:13:39.139Z,15.66
2019-05-10T01:16:03.679Z,15.73
2019-05-10T01:18:28.184Z,15.74
2019-05-10T01:20:52.661Z,15.13
2019-05-10T01:23:17.185Z,15.07
2019-05-10T01:25:41.626Z,15.16
2019-05-10T01:28:06.381Z,15.47
2019-05-10T01:30:30.813Z,15.61
2019-05-10T01:32:55.417Z,14.92
2019-05-10T01:35:19.931Z,15.49
2019-05-10T01:37:44.413Z,14.91
2019-05-10T01:40:09.101Z,14.82
2019-05-10T01:42:33.597Z,14.81
2019-05-10T01:44:58.054Z,14.83
2019-05-10T01:47:22.560Z,14.95
2019-05-10T01:49:47.011Z,14.74
2019-05-10T01:52:11.932Z,15.19
2019-05-10T01:54:36.522Z,15.27
2019-05-10T01:57:00.996Z,14.75
2019-05-10T01:59:25.584Z,15.08
2019-05-10T02:01:50.127Z,15.11
2019-05-10T02:04:17.613Z,15.32
2019-05-10T02:06:40.805Z,15.22
2019-05-10T02:09:07.738Z,15.04
2019-05-10T02:11:32.252Z,15.16
2019-05-10T02:13:56.736Z,15.24
2019-05-10T02:16:21.176Z,15.14
2019-05-10T02:18:45.716Z,15.04
2019-05-10T02:21:10.172Z,15.11
2019-05-10T02:23:34.653Z,14.94
2019-05-10T02:26:08.852Z,14.95
2019-05-10T02:28:25.417Z,14.78
2019-05-10T02:30:49.860Z,14.27
2019-05-10T02:33:14.484Z,14.66
2019-05-10T02:35:39.223Z,14.65
2019-05-10T02:38:03.911Z,14.68
2019-05-10T02:40:28.431Z,14.79
2019-05-10T02:42:52.937Z,14.77
2019-05-10T02:45:17.526Z,14.75
2019-05-10T02:47:42.186Z,14.60
2019-05-10T02:50:08.528Z,14.80
2019-05-10T02:52:33.139Z,14.72
2019-05-10T02:54:57.927Z,14.44
2019-05-10T02:57:22.757Z,14.63
2019-05-10T02:59:48.804Z,14.18
2019-05-10T03:02:14.360Z,14.53
2019-05-10T03:04:39.002Z,14.59
2019-05-10T03:07:05.829Z,14.61
2019-05-10T03:09:32.003Z,14.42
2019-05-10T03:11:59.482Z,13.93
2019-05-10T03:14:26.617Z,14.04
2019-05-10T03:16:51.890Z,13.85
2019-05-10T03:19:21.052Z,13.83
2019-05-10T03:21:47.979Z,13.77
2019-05-10T03:24:12.533Z,13.77
2019-05-10T03:26:50.319Z,14.03
2019-05-10T03:29:05.929Z,13.81
2019-05-10T03:31:30.525Z,13.98
2019-05-10T03:33:57.537Z,14.19
2019-05-10T03:36:21.607Z,13.88
2019-05-10T03:38:47.039Z,13.91
2019-05-10T03:41:11.905Z,13.88
2019-05-10T03:43:36.433Z,14.14
2019-05-10T03:46:00.934Z,14.05
2019-05-10T03:48:25.365Z,14.16
2019-05-10T03:50:49.898Z,14.21
2019-05-10T03:53:14.466Z,14.25
2019-05-10T03:55:38.939Z,14.09
2019-05-10T03:58:03.547Z,14.32
2019-05-10T04:00:28.080Z,14.31
2019-05-10T04:02:52.612Z,14.28
2019-05-10T04:05:17.225Z,14.33
2019-05-10T04:07:41.723Z,14.26
2019-05-10T04:10:09.382Z,14.13
2019-05-10T04:12:33.826Z,13.99
2019-05-10T04:14:58.489Z,14.07
2019-05-10T04:17:23.008Z,13.73
2019-05-10T04:19:47.542Z,13.82
2019-05-10T04:22:12.239Z,13.61
2019-05-10T04:24:36.838Z,13.66
2019-05-10T04:27:01.249Z,13.56
2019-05-10T04:29:25.722Z,14.26
2019-05-10T04:31:50.202Z,14.41
2019-05-10T04:34:14.800Z,13.88
2019-05-10T04:36:39.311Z,14.14
2019-05-10T04:39:05.318Z,13.81
2019-05-10T04:41:29.822Z,13.68
2019-05-10T04:43:54.285Z,13.72
2019-05-10T04:46:18.759Z,13.73
2019-05-10T04:48:43.217Z,13.75
2019-05-10T04:51:07.910Z,13.80
2019-05-10T04:53:32.312Z,13.74
2019-05-10T04:55:56.895Z,13.43
2019-05-10T04:58:21.371Z,13.81
2019-05-10T05:00:45.811Z,13.33
2019-05-10T05:03:10.440Z,13.46
2019-05-10T05:05:34.938Z,13.31
2019-05-10T05:07:59.417Z,13.86
2019-05-10T05:10:23.880Z,13.27
2019-05-10T05:12:48.391Z,13.51
2019-05-10T05:15:13.224Z,13.88
2019-05-10T05:17:37.748Z,13.04
2019-05-10T05:20:02.198Z,13.58
2019-05-10T05:22:26.671Z,13.51
2019-05-10T05:24:55.178Z,13.80
2019-05-10T05:27:17.304Z,13.37
2019-05-10T05:29:41.806Z,13.58
2019-05-10T05:32:06.372Z,13.44
2019-05-10T05:34:30.828Z,13.84
2019-05-10T05:36:55.500Z,13.36
2019-05-10T05:39:20.012Z,13.43
2019-05-10T05:41:49.051Z,13.50
2019-05-10T05:44:10.783Z,13.44
2019-05-10T05:46:35.256Z,13.47
2019-05-10T05:48:59.812Z,13.37
2019-05-10T05:51:24.354Z,13.09
2019-05-10T05:53:48.886Z,13.18
2019-05-10T05:56:14.667Z,13.63
2019-05-10T05:58:44.400Z,12.97
2019-05-10T06:01:05.687Z,13.24
2019-05-10T06:03:30.185Z,13.51
2019-05-10T06:05:54.611Z,13.23
2019-05-10T06:08:24.698Z,13.62
2019-05-10T06:10:56.182Z,13.38
2019-05-10T06:13:11.560Z,13.33
2019-05-10T06:15:36.139Z,12.92
2019-05-10T06:18:03.539Z,13.35
2019-05-10T06:20:26.889Z,13.06
2019-05-10T06:23:05.796Z,13.50
2019-05-10T06:25:17.565Z,13.54
2019-05-10T06:27:43.209Z,13.35
2019-05-10T06:30:08.314Z,13.65
2019-05-10T06:32:33.110Z,13.19
2019-05-10T06:34:58.209Z,13.58
2019-05-10T06:37:22.659Z,13.91
2019-05-10T06:39:47.136Z,13.55
2019-05-10T06:42:11.655Z,14.11
2019-05-10T06:44:36.223Z,14.09
2019-05-10T06:47:08.024Z,13.93
2019-05-10T06:49:28.396Z,14.29
2019-05-10T06:51:52.851Z,14.29
2019-05-10T06:54:17.402Z,13.96
2019-05-10T06:56:41.857Z,14.09
2019-05-10T06:59:13.642Z,13.82
2019-05-10T07:01:38.335Z,14.08
2019-05-10T07:03:58.795Z,14.20
2019-05-10T07:06:23.354Z,13.80
2019-05-10T07:08:51.959Z,14.12
2019-05-10T07:11:14.007Z,13.96
2019-05-10T07:13:40.486Z,14.20
2019-05-10T07:16:04.937Z,14.55
2019-05-10T07:18:29.469Z,13.80
2019-05-10T07:20:53.994Z,14.48
2019-05-10T07:23:18.471Z,14.19
2019-05-10T07:25:44.554Z,14.28
2019-05-10T07:28:15.160Z,14.14
2019-05-10T07:30:41.077Z,14.57
2019-05-10T07:33:03.772Z,14.14
2019-05-10T07:35:30.901Z,14.23
2019-05-10T07:37:54.455Z,14.27
2019-05-10T07:40:19.023Z,14.16
2019-05-10T07:42:45.551Z,14.17
2019-05-10T07:45:10.337Z,14.07
2019-05-10T07:47:34.827Z,14.06
2019-05-10T07:50:03.841Z,13.82
2019-05-10T07:52:25.510Z,14.01
2019-05-10T07:54:49.977Z,14.26
2019-05-10T07:57:18.636Z,14.47
2019-05-10T07:59:49.937Z,14.19
2019-05-10T08:02:12.818Z,14.96
2019-05-10T08:04:33.706Z,15.06
2019-05-10T08:06:59.703Z,14.89
2019-05-10T08:09:24.279Z,14.74
2019-05-10T08:11:54.027Z,15.01
2019-05-10T08:14:14.930Z,15.40
2019-05-10T08:16:39.411Z,15.20
2019-05-10T08:19:03.938Z,14.70
2019-05-10T08:21:28.451Z,14.83
2019-05-10T08:23:54.100Z,14.67
2019-05-10T08:26:24.130Z,14.84
2019-05-10T08:28:44.910Z,14.58
2019-05-10T08:31:12.167Z,15.17
2019-05-10T08:33:35.832Z,15.04
2019-05-10T08:36:02.912Z,15.12
2019-05-10T08:38:26.577Z,14.93
2019-05-10T08:40:52.707Z,15.28
2019-05-10T08:43:17.561Z,15.86
2019-05-10T08:45:45.030Z,15.38
2019-05-10T08:48:08.688Z,15.30
2019-05-10T08:50:45.675Z,15.23
2019-05-10T08:53:02.360Z,15.36
2019-05-10T08:55:25.652Z,15.11
2019-05-10T08:57:52.354Z,14.86
2019-05-10T09:00:17.024Z,14.54
2019-05-10T09:02:42.697Z,15.06
2019-05-10T09:05:07.534Z,15.18
2019-05-10T09:07:34.957Z,15.55
2019-05-10T09:09:58.239Z,15.13
2019-05-10T09:12:23.179Z,15.65
2019-05-10T09:14:48.876Z,15.36
2019-05-10T09:17:14.724Z,15.28
2019-05-10T09:19:41.650Z,15.60
2019-05-10T09:22:05.788Z,15.02
2019-05-10T09:24:34.545Z,15.22
2019-05-10T09:26:57.119Z,15.20
2019-05-10T09:29:22.033Z,15.46
2019-05-10T09:31:50.683Z,15.39
2019-05-10T09:34:12.821Z,15.42
2019-05-10T09:36:37.260Z,15.65
2019-05-10T09:39:03.426Z,15.94
2019-05-10T09:41:33.817Z,15.39
2019-05-10T09:43:54.153Z,15.32
2019-05-10T09:46:18.738Z,15.07
2019-05-10T09:48:45.052Z,14.71
2019-05-10T09:51:09.438Z,14.90
2019-05-10T09:53:33.989Z,14.70
2019-05-10T09:56:02.590Z,14.46
2019-05-10T09:58:24.817Z,14.53
2019-05-10T10:00:49.256Z,14.69
2019-05-10T10:03:13.750Z,14.95
2019-05-10T10:05:40.331Z,15.39
2019-05-10T10:08:08.986Z,15.29
2019-05-10T10:10:32.578Z,15.33
2019-05-10T10:12:58.297Z,15.15
2019-05-10T10:15:32.072Z,14.74
2019-05-10T10:17:49.684Z,14.97
2019-05-10T10:20:14.259Z,14.40
2019-05-10T10:22:43.458Z,14.66
2019-05-10T10:25:09.354Z,14.70
2019-05-10T10:27:34.780Z,15.66
2019-05-10T10:30:06.650Z,15.81
2019-05-10T10:32:31.380Z,15.93
2019-05-10T10:34:57.663Z,15.19
2019-05-10T10:37:25.693Z,14.96
2019-05-10T10:39:47.825Z,15.10
2019-05-10T10:42:13.333Z,15.25
2019-05-10T10:44:37.927Z,15.34
2019-05-10T10:47:02.364Z,15.85
2019-05-10T10:49:30.795Z,15.71
2019-05-10T10:51:53.104Z,15.54
2019-05-10T10:54:22.405Z,15.49
2019-05-10T10:56:44.027Z,16.11
2019-05-10T10:59:08.537Z,15.75
2019-05-10T11:01:46.229Z,15.86
2019-05-10T11:04:03.448Z,15.66
2019-05-10T11:06:25.298Z,15.95
2019-05-10T11:08:51.843Z,15.48
2019-05-10T11:11:16.139Z,15.05
2019-05-10T11:13:45.385Z,15.27
2019-05-10T11:16:14.070Z,14.88
2019-05-10T11:18:33.013Z,15.11
2019-05-10T11:20:57.495Z,14.81
2019-05-10T11:23:24.498Z,14.60
2019-05-10T11:25:54.838Z,14.20
2019-05-10T11:28:14.317Z,13.40
2019-05-10T11:30:38.784Z,12.80
2019-05-10T11:33:03.266Z,12.38
2019-05-10T11:35:31.434Z,12.43
2019-05-10T11:37:54.014Z,12.99
2019-05-10T11:40:30.472Z,12.24
2019-05-10T11:42:47.532Z,12.88
2019-05-10T11:45:11.498Z,13.22
2019-05-10T11:47:35.973Z,13.56
2019-05-10T11:50:06.054Z,14.55
2019-05-10T11:52:29.220Z,13.85
2019-05-10T11:54:52.976Z,13.04
2019-05-10T11:57:17.498Z,13.07
2019-05-10T11:59:41.946Z,13.07
2019-05-10T12:02:10.337Z,13.68
2019-05-10T12:07:01.792Z,13.85
2019-05-10T12:09:25.928Z,13.44
2019-05-10T12:11:52.165Z,12.89
2019-05-10T12:14:16.666Z,13.35
2019-05-10T12:16:42.161Z,13.60
2019-05-10T12:19:15.827Z,13.42
2019-05-10T12:21:33.394Z,12.86
2019-05-10T12:24:10.506Z,12.62
2019-05-10T12:26:06.159Z,13.67
2019-05-10T12:28:51.176Z,12.06
2019-05-10T12:31:17.191Z,12.06
2019-05-10T12:33:45.208Z,12.39
2019-05-10T12:36:13.487Z,12.27
2019-05-10T12:38:35.895Z,12.49
2019-05-10T12:41:01.373Z,12.57
2019-05-10T12:43:26.300Z,13.53
2019-05-10T12:45:51.781Z,13.92
2019-05-10T12:48:16.641Z,13.87
2019-05-10T12:50:44.027Z,13.59
2019-05-10T12:53:13.904Z,13.25
2019-05-10T12:55:33.601Z,14.13
2019-05-10T12:57:58.189Z,13.81
2019-05-10T13:00:22.900Z,13.12
2019-05-10T13:02:51.091Z,13.87
2019-05-10T13:05:15.686Z,13.26
2019-05-10T13:07:39.880Z,13.45
2019-05-10T13:10:07.927Z,13.49
2019-05-10T13:12:36.767Z,12.89
2019-05-10T13:14:58.274Z,13.21
2019-05-10T13:17:22.750Z,13.72
2019-05-10T13:19:47.361Z,13.79
2019-05-10T13:22:11.903Z,14.16
2019-05-10T13:24:36.436Z,14.97
2019-05-10T13:27:03.556Z,15.21
2019-05-10T13:29:27.104Z,14.55
2019-05-10T13:31:51.618Z,15.04
2019-05-10T13:34:16.084Z,14.90
2019-05-10T13:36:40.559Z,14.63
2019-05-10T13:39:06.634Z,14.57
2019-05-10T13:41:31.123Z,15.18
2019-05-10T13:43:58.990Z,15.13
2019-05-10T13:46:21.941Z,15.03
2019-05-10T13:48:46.395Z,14.60
2019-05-10T13:51:10.860Z,14.63
2019-05-10T13:53:35.413Z,14.04
2019-05-10T13:55:59.900Z,14.47
2019-05-10T13:58:24.401Z,14.48
2019-05-10T14:00:48.927Z,14.05
2019-05-10T14:03:13.700Z,13.84
2019-05-10T14:05:40.334Z,14.53
2019-05-10T14:08:04.568Z,14.91
2019-05-10T14:10:29.158Z,15.23
2019-05-10T14:12:56.105Z,16.21
2019-05-10T14:15:19.982Z,15.13
2019-05-10T14:17:44.457Z,15.76
2019-05-10T14:20:19.441Z,15.33
2019-05-10T14:22:36.038Z,15.03
2019-05-10T14:25:00.469Z,15.32
2019-05-10T14:27:29.975Z,15.46
2019-05-10T14:29:51.198Z,15.33
2019-05-10T14:32:15.670Z,15.45
2019-05-10T14:34:44.209Z,14.86
2019-05-10T14:37:06.459Z,15.03
2019-05-10T14:39:30.939Z,14.86
2019-05-10T14:41:55.421Z,15.20
2019-05-10T14:44:19.954Z,16.12
2019-05-10T14:46:44.391Z,16.11
2019-05-10T14:49:10.088Z,16.29
2019-05-10T14:51:44.332Z,16.38
2019-05-10T14:54:06.806Z,16.94
2019-05-10T14:56:27.430Z,17.13
2019-05-10T14:58:51.993Z,16.18
2019-05-10T15:01:16.499Z,16.57
2019-05-10T15:03:45.288Z,15.53
2019-05-10T15:06:07.165Z,16.15
2019-05-10T15:08:31.660Z,15.92
2019-05-10T15:10:57.273Z,15.51
2019-05-10T15:13:25.504Z,15.93
2019-05-10T15:15:48.220Z,16.11
2019-05-10T15:18:12.838Z,15.35
2019-05-10T15:20:37.358Z,15.34
2019-05-10T15:23:01.851Z,16.52
2019-05-10T15:25:26.495Z,16.47
2019-05-10T15:27:54.762Z,15.54
2019-05-10T15:30:17.521Z,15.65
2019-05-10T15:32:42.053Z,14.61
2019-05-10T15:35:08.702Z,16.01
2019-05-10T15:37:33.571Z,15.01
2019-05-10T15:40:00.582Z,15.70
2019-05-10T15:42:24.329Z,15.17
2019-05-10T15:44:48.804Z,15.27
2019-05-10T15:47:19.765Z,16.07
2019-05-10T15:49:39.481Z,15.04
2019-05-10T15:52:16.827Z,15.31
2019-05-10T15:54:30.339Z,15.27
2019-05-10T15:56:55.757Z,15.36
2019-05-10T15:59:21.314Z,14.55
2019-05-10T16:01:46.201Z,14.17
2019-05-10T16:04:10.863Z,14.36
2019-05-10T16:06:37.667Z,14.49
2019-05-10T16:09:03.529Z,15.15
2019-05-10T16:11:27.789Z,15.22
2019-05-10T16:13:54.657Z,15.65
2019-05-10T16:16:18.595Z,15.35
2019-05-10T16:18:42.985Z,14.82
2019-05-10T16:21:09.744Z,15.12
2019-05-10T16:23:33.659Z,14.89
2019-05-10T16:25:58.126Z,15.11
2019-05-10T16:28:22.956Z,15.35
2019-05-10T16:30:47.811Z,15.41
2019-05-10T16:33:15.594Z,15.82
2019-05-10T16:35:39.319Z,14.76
2019-05-10T16:38:03.869Z,14.71
2019-05-10T16:40:28.381Z,14.68
2019-05-10T16:42:52.984Z,14.45
2019-05-10T16:45:17.673Z,15.53
2019-05-10T16:47:44.228Z,14.47
2019-05-10T16:50:10.067Z,15.20
2019-05-10T16:52:34.691Z,15.85
2019-05-10T16:55:03.665Z,15.23
2019-05-10T16:57:25.698Z,15.65
2019-05-10T16:59:50.505Z,14.52
2019-05-10T17:02:15.153Z,14.87
2019-05-10T17:04:39.919Z,14.88
2019-05-10T17:07:04.511Z,14.70
2019-05-10T17:09:29.343Z,14.55
2019-05-10T17:11:59.033Z,14.75
2019-05-10T17:14:23.342Z,15.28
2019-05-10T17:16:49.621Z,14.42
2019-05-10T17:19:14.083Z,14.19
2019-05-10T17:21:38.620Z,14.42
2019-05-10T17:24:03.143Z,14.29
2019-05-10T17:26:27.604Z,14.39
2019-05-10T17:28:52.065Z,14.45
2019-05-10T17:31:16.634Z,14.28
2019-05-10T17:33:42.828Z,13.88
2019-05-10T17:36:08.866Z,14.45
2019-05-10T17:38:33.615Z,14.33
2019-05-10T17:40:58.379Z,14.83
2019-05-10T17:43:22.954Z,15.06
2019-05-10T17:45:47.365Z,14.67
2019-05-10T17:48:11.806Z,15.44
2019-05-10T17:50:36.256Z,15.40
2019-05-10T17:53:00.744Z,14.89
2019-05-10T17:55:25.680Z,15.04
2019-05-10T17:57:54.532Z,14.84
2019-05-10T18:00:17.027Z,15.15
2019-05-10T18:02:41.497Z,14.31
2019-05-10T18:05:08.266Z,14.14
2019-05-10T18:07:32.936Z,13.92
2019-05-10T18:09:57.453Z,14.60
2019-05-10T18:12:26.685Z,15.49
2019-05-10T18:14:50.195Z,15.47
2019-05-10T18:17:14.402Z,15.46
2019-05-10T18:19:39.015Z,15.93
2019-05-10T18:22:06.440Z,16.06
2019-05-10T18:24:35.104Z,15.98
2019-05-10T18:26:56.082Z,16.06
2019-05-10T18:29:20.524Z,16.05
2019-05-10T18:31:54.679Z,16.05
2019-05-10T18:34:11.239Z,15.86
2019-05-10T18:36:50.983Z,15.78
2019-05-10T18:39:01.937Z,15.89
2019-05-10T18:41:26.550Z,15.82
2019-05-10T18:43:51.126Z,15.71
2019-05-10T18:46:15.584Z,15.72
2019-05-10T18:48:40.061Z,15.68
2019-05-10T18:51:04.662Z,15.59
2019-05-10T18:53:29.185Z,15.58
2019-05-10T18:55:53.624Z,15.44
2019-05-10T18:58:23.310Z,15.52
2019-05-10T19:00:44.244Z,15.49
2019-05-10T19:03:08.815Z,15.42
2019-05-10T19:05:33.305Z,15.45
2019-05-10T19:08:05.069Z,15.31
2019-05-10T19:10:24.057Z,15.34
2019-05-10T19:12:59.779Z,15.24
2019-05-10T19:15:15.643Z,15.09
2019-05-10T19:17:45.642Z,15.13
2019-05-10T19:20:09.521Z,15.12
2019-05-10T19:22:33.665Z,15.05
2019-05-10T19:25:10.849Z,14.98
2019-05-10T19:27:25.186Z,15.00
2019-05-10T19:29:49.830Z,15.07
2019-05-10T19:32:18.169Z,14.95
2019-05-10T19:34:40.540Z,14.77
2019-05-10T19:37:04.991Z,14.75
2019-05-10T19:39:29.456Z,14.79
2019-05-10T19:42:03.065Z,14.80
2019-05-10T19:44:20.097Z,14.70
2019-05-10T19:46:44.529Z,14.65
2019-05-10T19:49:13.409Z,14.58
2019-05-10T19:51:35.380Z,14.60
2019-05-10T19:53:59.884Z,14.58
2019-05-10T19:56:24.343Z,14.47
2019-05-10T19:58:49.484Z,14.49
2019-05-10T20:01:14.006Z,14.41
2019-05-10T20:03:38.636Z,14.41
2019-05-10T20:06:03.074Z,14.31
2019-05-10T20:08:27.597Z,14.20
2019-05-10T20:10:52.113Z,14.10
2019-05-10T20:13:16.551Z,14.02
2019-05-10T20:15:41.008Z,14.08
2019-05-10T20:18:05.771Z,14.15
2019-05-10T20:20:30.354Z,14.06
2019-05-10T20:22:54.777Z,14.02
2019-05-10T20:25:19.329Z,13.91
2019-05-10T20:27:43.788Z,13.96
2019-05-10T20:30:09.191Z,13.89
2019-05-10T20:32:33.650Z,13.92
2019-05-10T20:34:58.212Z,13.77
2019-05-10T20:37:22.669Z,13.65
2019-05-10T20:39:47.300Z,13.68
2019-05-10T20:42:11.966Z,13.69
2019-05-10T20:44:36.488Z,13.76
2019-05-10T20:47:00.935Z,13.24
2019-05-10T20:49:25.469Z,13.57
2019-05-10T20:51:50.016Z,13.46
2019-05-10T20:54:14.547Z,13.38
2019-05-10T20:56:39.018Z,13.29
2019-05-10T20:59:03.612Z,13.41
2019-05-10T21:01:28.105Z,13.27
2019-05-10T21:03:52.633Z,13.20
2019-05-10T21:06:17.127Z,13.04
2019-05-10T21:08:41.587Z,13.19
2019-05-10T21:11:06.208Z,13.14
2019-05-10T21:13:30.693Z,13.03
2019-05-10T21:15:55.164Z,13.13
2019-05-10T21:18:19.618Z,13.17
2019-05-10T21:20:44.089Z,13.04
2019-05-10T21:23:08.691Z,12.97
2019-05-10T21:25:33.174Z,12.65
2019-05-10T21:27:57.619Z,12.67
2019-05-10T21:30:22.244Z,12.58
2019-05-10T21:32:46.704Z,12.49
2019-05-10T21:35:11.333Z,12.43
2019-05-10T21:37:35.870Z,12.57
2019-05-10T21:40:00.454Z,12.56
2019-05-10T21:42:24.977Z,12.54
2019-05-10T21:44:49.504Z,12.57
2019-05-10T21:47:14.172Z,12.46
2019-05-10T21:49:38.756Z,12.42
2019-05-10T21:52:03.305Z,12.29
2019-05-10T21:54:27.746Z,12.47
2019-05-10T21:56:52.221Z,12.20
2019-05-10T21:59:16.668Z,12.21
2019-05-10T22:01:41.210Z,12.29
2019-05-10T22:04:05.720Z,12.23
2019-05-10T22:06:30.271Z,12.17
2019-05-10T22:08:54.796Z,12.07
2019-05-10T22:11:19.899Z,12.22
2019-05-10T22:13:44.365Z,12.06
2019-05-10T22:16:08.890Z,12.08
2019-05-10T22:18:33.690Z,11.80
2019-05-10T22:20:58.227Z,12.05
2019-05-10T22:23:22.662Z,12.09
2019-05-10T22:25:47.143Z,12.04
2019-05-10T22:28:11.677Z,12.04
2019-05-10T22:30:36.190Z,12.09
2019-05-10T22:33:00.716Z,11.98
2019-05-10T22:35:25.341Z,11.98
2019-05-10T22:37:49.883Z,11.88
2019-05-10T22:40:14.460Z,11.78
2019-05-10T22:42:39.117Z,11.50
2019-05-10T22:45:04.043Z,11.58
2019-05-10T22:47:28.472Z,11.38
2019-05-10T22:49:52.919Z,11.42
2019-05-10T22:52:17.489Z,11.09
2019-05-10T22:54:42.003Z,11.48
2019-05-10T22:57:06.496Z,11.30
2019-05-10T22:59:30.983Z,11.47
2019-05-10T23:01:55.537Z,10.89
2019-05-10T23:04:20.253Z,10.28
2019-05-10T23:06:44.893Z,10.36
2019-05-10T23:09:23.402Z,11.21
2019-05-10T23:11:35.564Z,11.25
2019-05-10T23:14:00.040Z,11.26
2019-05-10T23:16:24.621Z,11.34
2019-05-10T23:18:49.076Z,11.19
2019-05-10T23:21:13.561Z,11.28
2019-05-10T23:23:38.007Z,11.28
2019-05-10T23:26:02.458Z,11.44
2019-05-10T23:28:26.936Z,11.35
2019-05-10T23:30:52.973Z,11.47
2019-05-10T23:33:18.402Z,11.40
2019-05-10T23:35:43.216Z,11.48
2019-05-10T23:38:07.724Z,11.45
2019-05-10T23:40:32.160Z,11.65
2019-05-10T23:42:56.654Z,11.68
2019-05-10T23:45:21.157Z,11.71
2019-05-10T23:47:45.643Z,11.76
2019-05-10T23:50:10.223Z,11.53
2019-05-10T23:52:34.697Z,10.88
2019-05-10T23:54:59.216Z,11.08
2019-05-10T23:57:23.736Z,11.02
2019-05-10T23:59:48.252Z,11.23
